createdAt,value
2023-01-29T00:02:22.252Z,100404.03
2023-01-29T00:04:49.694Z,100410.31
2023-01-29T00:07:16.878Z,100395.75
2023-01-29T00:09:44.127Z,100407.66
2023-01-29T00:12:11.736Z,100399.03
2023-01-29T00:14:39.005Z,100389.13
2023-01-29T00:17:07.959Z,100418.28
2023-01-29T00:19:35.977Z,100404.25
2023-01-29T00:22:03.155Z,100415.00
2023-01-29T00:24:30.418Z,100410.84
2023-01-29T00:26:57.737Z,100384.88
2023-01-29T00:29:25.921Z,100390.19
2023-01-29T00:31:53.337Z,100389.13
2023-01-29T00:34:21.589Z,100383.50
2023-01-29T00:36:48.972Z,100412.28
2023-01-29T00:39:16.186Z,100393.63
2023-01-29T00:42:01.656Z,100406.31
2023-01-29T00:44:47.301Z,100400.38
2023-01-29T00:47:31.062Z,100388.03
2023-01-29T00:49:58.314Z,100392.53
2023-01-29T00:52:25.851Z,100388.91
2023-01-29T00:54:54.853Z,100399.28
2023-01-29T00:57:23.244Z,100396.38
2023-01-29T00:59:50.775Z,100393.66
2023-01-29T01:02:36.914Z,100383.22
2023-01-29T01:05:14.247Z,100392.34
2023-01-29T01:07:43.298Z,100391.78
2023-01-29T01:10:21.372Z,100394.00
2023-01-29T01:13:03.394Z,100393.25
2023-01-29T01:15:40.385Z,100364.69
2023-01-29T01:18:08.004Z,100383.84
2023-01-29T01:20:37.054Z,100385.75
2023-01-29T01:23:05.058Z,100377.16
2023-01-29T01:25:32.486Z,100351.69
2023-01-29T01:28:03.300Z,100378.81
2023-01-29T01:30:30.782Z,100368.28
2023-01-29T01:32:59.578Z,100367.44
2023-01-29T01:35:26.719Z,100371.34
2023-01-29T01:37:53.986Z,100367.19
2023-01-29T01:40:23.432Z,100358.59
2023-01-29T01:42:56.235Z,100359.97
2023-01-29T01:45:33.146Z,100358.31
2023-01-29T01:48:13.120Z,100366.09
2023-01-29T01:50:58.996Z,100367.22
2023-01-29T01:53:39.201Z,100357.53
2023-01-29T01:56:16.641Z,100371.66
2023-01-29T01:58:52.041Z,100361.13
2023-01-29T02:01:26.607Z,100363.06
2023-01-29T02:04:23.823Z,100353.88
2023-01-29T02:07:11.487Z,100345.22
2023-01-29T02:09:46.475Z,100363.44
2023-01-29T02:12:14.715Z,100368.56
2023-01-29T02:14:43.693Z,100370.03
2023-01-29T02:17:32.207Z,100366.75
2023-01-29T02:20:18.512Z,100368.97
2023-01-29T02:23:15.005Z,100377.94
2023-01-29T02:26:27.116Z,100304.84
2023-01-29T02:29:34.032Z,100359.41
2023-01-29T02:32:14.670Z,100372.19
2023-01-29T02:35:19.218Z,100374.94
2023-01-29T02:37:58.805Z,100384.06
2023-01-29T02:40:30.435Z,100368.53
2023-01-29T02:43:07.688Z,100364.91
2023-01-29T02:45:42.375Z,100333.06
2023-01-29T02:48:17.226Z,100319.75
2023-01-29T02:50:48.444Z,100344.44
2023-01-29T02:53:19.974Z,100354.69
2023-01-29T02:55:57.361Z,100342.78
2023-01-29T02:58:24.763Z,100347.69
2023-01-29T03:00:55.057Z,100355.97
2023-01-29T03:03:43.213Z,100348.16
2023-01-29T03:06:23.376Z,100363.72
2023-01-29T03:08:58.016Z,100364.28
2023-01-29T03:11:31.985Z,100353.38
2023-01-29T03:14:04.841Z,100358.16
2023-01-29T03:16:48.863Z,100373.44
2023-01-29T03:19:29.797Z,100360.16
2023-01-29T03:21:59.769Z,100354.06
2023-01-29T03:25:03.964Z,100370.66
2023-01-29T03:28:05.326Z,100367.97
2023-01-29T03:31:04.762Z,100377.94
2023-01-29T03:33:49.645Z,100376.00
2023-01-29T03:36:45.344Z,100373.22
2023-01-29T03:39:15.580Z,100368.16
2023-01-29T03:42:03.774Z,100372.03
2023-01-29T03:44:49.973Z,100384.00
2023-01-29T03:47:57.584Z,100363.28
2023-01-29T03:50:42.872Z,100390.19
2023-01-29T03:53:31.956Z,100381.06
2023-01-29T03:56:14.201Z,100376.09
2023-01-29T03:59:05.148Z,100376.56
2023-01-29T04:02:00.394Z,100389.38
2023-01-29T04:04:33.125Z,100368.03
2023-01-29T04:07:31.813Z,100364.72
2023-01-29T04:10:26.919Z,100226.22
2023-01-29T04:13:02.753Z,100351.97
2023-01-29T04:15:39.794Z,100353.38
2023-01-29T04:18:15.175Z,100364.47
2023-01-29T04:21:10.801Z,100318.44
2023-01-29T04:23:38.059Z,100365.84
2023-01-29T04:26:42.897Z,100376.84
2023-01-29T04:29:22.341Z,100381.56
2023-01-29T04:32:19.114Z,100373.22
2023-01-29T04:35:09.559Z,100372.38
2023-01-29T04:38:01.565Z,100384.59
2023-01-29T04:40:45.753Z,100379.59
2023-01-29T04:43:56.412Z,100384.03
2023-01-29T04:46:31.882Z,100376.59
2023-01-29T04:49:25.491Z,100359.47
2023-01-29T04:52:02.019Z,100380.53
2023-01-29T04:54:55.654Z,100366.38
2023-01-29T04:57:36.351Z,100387.19
2023-01-29T05:00:16.992Z,100367.78
2023-01-29T05:02:45.515Z,100396.31
2023-01-29T05:05:15.145Z,100401.03
2023-01-29T05:07:44.238Z,100380.81
2023-01-29T05:10:13.571Z,100408.25
2023-01-29T05:12:43.864Z,100399.09
2023-01-29T05:15:17.359Z,100407.72
2023-01-29T05:17:44.605Z,100390.47
2023-01-29T05:20:12.593Z,100391.91
2023-01-29T05:22:44.924Z,100389.38
2023-01-29T05:25:26.237Z,100403.78
2023-01-29T05:28:16.418Z,100406.84
2023-01-29T05:30:46.301Z,100398.22
2023-01-29T05:33:22.212Z,100407.66
2023-01-29T05:35:50.676Z,100396.00
2023-01-29T05:38:19.157Z,100408.22
2023-01-29T05:40:46.307Z,100413.75
2023-01-29T05:43:19.418Z,100382.44
2023-01-29T05:45:57.966Z,100408.81
2023-01-29T05:48:27.728Z,100412.38
2023-01-29T05:51:01.306Z,100414.88
2023-01-29T05:53:32.756Z,100414.28
2023-01-29T05:56:04.639Z,100379.91
2023-01-29T05:58:32.926Z,100407.91
2023-01-29T06:01:13.425Z,100409.31
2023-01-29T06:03:40.781Z,100396.03
2023-01-29T06:06:08.557Z,100410.47
2023-01-29T06:08:35.744Z,100411.56
2023-01-29T06:11:04.102Z,100393.28
2023-01-29T06:13:31.365Z,100391.91
2023-01-29T06:15:59.528Z,100408.78
2023-01-29T06:18:26.740Z,100391.03
2023-01-29T06:20:53.946Z,100399.38
2023-01-29T06:23:21.000Z,100393.84
2023-01-29T06:25:48.103Z,100398.56
2023-01-29T06:28:15.148Z,100410.72
2023-01-29T06:30:42.455Z,100402.13
2023-01-29T06:33:09.601Z,100398.28
2023-01-29T06:35:36.639Z,100404.94
2023-01-29T06:38:04.904Z,100391.63
2023-01-29T06:40:32.481Z,100401.00
2023-01-29T06:43:01.475Z,100407.69
2023-01-29T06:45:28.688Z,100386.91
2023-01-29T06:47:56.801Z,100401.88
2023-01-29T06:50:23.809Z,100388.56
2023-01-29T06:52:51.150Z,100384.91
2023-01-29T06:55:18.492Z,100399.34
2023-01-29T06:57:45.663Z,100392.13
2023-01-29T07:00:14.332Z,100382.75
2023-01-29T07:02:41.543Z,100373.34
2023-01-29T07:05:10.167Z,100373.91
2023-01-29T07:07:37.331Z,100384.69
2023-01-29T07:10:04.713Z,100384.97
2023-01-29T07:12:35.491Z,100378.81
2023-01-29T07:15:04.076Z,100355.00
2023-01-29T07:17:31.370Z,100375.47
2023-01-29T07:19:59.433Z,100382.66
2023-01-29T07:22:26.874Z,100372.69
2023-01-29T07:24:55.055Z,100387.66
2023-01-29T07:27:24.186Z,100379.34
2023-01-29T07:29:51.592Z,100370.22
2023-01-29T07:32:19.991Z,100377.09
2023-01-29T07:34:48.058Z,100372.09
2023-01-29T07:37:15.456Z,100371.00
2023-01-29T07:39:42.588Z,100350.53
2023-01-29T07:42:12.483Z,100356.63
2023-01-29T07:44:39.678Z,100363.03
2023-01-29T07:47:08.717Z,100373.25
2023-01-29T07:49:36.167Z,100375.75
2023-01-29T07:52:03.543Z,100355.75
2023-01-29T07:54:31.761Z,100374.03
2023-01-29T07:57:00.496Z,100369.28
2023-01-29T07:59:27.640Z,100356.88
2023-01-29T08:01:54.793Z,100339.97
2023-01-29T08:04:23.042Z,100346.66
2023-01-29T08:06:50.146Z,100358.31
2023-01-29T08:09:17.538Z,100344.72
2023-01-29T08:11:44.768Z,100343.06
2023-01-29T08:14:12.150Z,100340.84
2023-01-29T08:16:39.421Z,100258.03
2023-01-29T08:19:06.700Z,100322.19
2023-01-29T08:21:33.811Z,100318.84
2023-01-29T08:26:28.656Z,100322.94
2023-01-29T08:28:55.696Z,100312.09
2023-01-29T08:31:23.048Z,100282.72
2023-01-29T08:33:50.480Z,100279.09
2023-01-29T08:36:17.626Z,100295.53
2023-01-29T08:38:45.983Z,100291.75
2023-01-29T08:41:13.153Z,100276.19
2023-01-29T08:43:40.746Z,100286.59
2023-01-29T08:46:08.649Z,100304.19
2023-01-29T08:48:38.151Z,100311.47
2023-01-29T08:51:05.501Z,100311.75
2023-01-29T08:53:34.482Z,100292.16
2023-01-29T08:56:02.103Z,100297.13
2023-01-29T08:58:29.575Z,100293.75
2023-01-29T09:00:58.199Z,100291.75
2023-01-29T09:03:25.381Z,100275.63
2023-01-29T09:05:52.477Z,100281.47
2023-01-29T09:08:20.488Z,100303.31
2023-01-29T09:10:47.670Z,100287.25
2023-01-29T09:13:15.057Z,100283.97
2023-01-29T09:15:42.327Z,100285.34
2023-01-29T09:18:09.881Z,100278.22
2023-01-29T09:20:39.030Z,100270.84
2023-01-29T09:23:09.115Z,100253.97
2023-01-29T09:25:36.705Z,100290.03
2023-01-29T09:28:04.553Z,100277.47
2023-01-29T09:30:33.668Z,100277.16
2023-01-29T09:33:01.644Z,100288.56
2023-01-29T09:35:28.781Z,100289.59
2023-01-29T09:37:57.095Z,100272.41
2023-01-29T09:40:27.519Z,100276.91
2023-01-29T09:43:02.070Z,100275.53
2023-01-29T09:45:31.737Z,100275.50
2023-01-29T09:48:02.400Z,100293.38
2023-01-29T09:50:38.835Z,100273.34
2023-01-29T09:53:34.996Z,100271.13
2023-01-29T09:56:04.902Z,100273.31
2023-01-29T09:58:42.058Z,100272.94
2023-01-29T10:01:13.892Z,100252.63
2023-01-29T10:03:52.941Z,100259.94
2023-01-29T10:06:41.911Z,100256.22
2023-01-29T10:09:51.120Z,100259.81
2023-01-29T10:12:30.653Z,100252.44
2023-01-29T10:15:11.322Z,100251.66
2023-01-29T10:17:38.885Z,100248.72
2023-01-29T10:20:24.754Z,100246.56
2023-01-29T10:23:20.834Z,100220.59
2023-01-29T10:26:02.364Z,100229.78
2023-01-29T10:28:37.123Z,100222.19
2023-01-29T10:31:11.444Z,100235.44
2023-01-29T10:34:01.625Z,100249.25
2023-01-29T10:36:49.840Z,100254.84
2023-01-29T10:39:30.494Z,100254.72
2023-01-29T10:42:34.405Z,100249.03
2023-01-29T10:45:16.607Z,100249.59
2023-01-29T10:48:21.509Z,100243.78
2023-01-29T10:50:49.311Z,100252.53
2023-01-29T10:53:34.792Z,100248.38
2023-01-29T10:56:30.234Z,100250.53
2023-01-29T10:59:05.685Z,100264.56
2023-01-29T11:01:32.883Z,100229.78
2023-01-29T11:04:03.496Z,100239.72
2023-01-29T11:06:36.396Z,100234.41
2023-01-29T11:09:48.673Z,100234.13
2023-01-29T11:12:23.691Z,100223.69
2023-01-29T11:15:07.173Z,100241.66
2023-01-29T11:17:34.470Z,100204.59
2023-01-29T11:20:01.665Z,100212.38
2023-01-29T11:22:30.867Z,100220.41
2023-01-29T11:25:08.467Z,100239.69
2023-01-29T11:27:43.395Z,100226.94
2023-01-29T11:30:38.075Z,100224.09
2023-01-29T11:33:24.085Z,100235.06
2023-01-29T11:35:53.051Z,100220.19
2023-01-29T11:38:26.751Z,100218.03
2023-01-29T11:41:08.017Z,100226.44
2023-01-29T11:43:37.298Z,100228.09
2023-01-29T11:46:14.069Z,100235.50
2023-01-29T11:48:52.085Z,100209.22
2023-01-29T11:51:25.380Z,100242.97
2023-01-29T11:53:58.470Z,100217.16
2023-01-29T11:56:49.182Z,100231.56
2023-01-29T11:59:42.442Z,100225.13
2023-01-29T12:02:28.514Z,100225.66
2023-01-29T12:05:00.546Z,100201.34
2023-01-29T12:07:28.983Z,100228.97
2023-01-29T12:09:58.151Z,100224.03
2023-01-29T12:12:39.369Z,100223.06
2023-01-29T12:15:17.809Z,100224.03
2023-01-29T12:17:53.869Z,100208.03
2023-01-29T12:20:34.732Z,100208.59
2023-01-29T12:23:24.253Z,100222.97
2023-01-29T12:26:09.964Z,100228.84
2023-01-29T12:28:47.837Z,100204.22
2023-01-29T12:31:37.247Z,100215.66
2023-01-29T12:34:39.645Z,100235.72
2023-01-29T12:37:31.298Z,100249.00
2023-01-29T12:39:58.557Z,100247.06
2023-01-29T12:42:26.039Z,100225.91
2023-01-29T12:44:57.868Z,100216.28
2023-01-29T12:47:36.987Z,100228.81
2023-01-29T12:50:19.144Z,100224.44
2023-01-29T12:52:56.848Z,100244.59
2023-01-29T12:55:37.122Z,100237.13
2023-01-29T12:58:10.120Z,100237.78
2023-01-29T13:00:43.666Z,100240.28
2023-01-29T13:03:19.876Z,100241.97
2023-01-29T13:06:02.299Z,100248.06
2023-01-29T13:08:36.127Z,100254.19
2023-01-29T13:11:09.556Z,100250.16
2023-01-29T13:13:36.784Z,100244.88
2023-01-29T13:16:10.065Z,100219.16
2023-01-29T13:18:51.053Z,100249.50
2023-01-29T13:21:30.732Z,100258.47
2023-01-29T13:24:03.544Z,100237.03
2023-01-29T13:26:32.654Z,100238.94
2023-01-29T13:28:59.909Z,100255.63
2023-01-29T13:31:48.615Z,100253.81
2023-01-29T13:34:25.586Z,100248.59
2023-01-29T13:36:56.169Z,100231.41
2023-01-29T13:39:39.925Z,100222.84
2023-01-29T13:42:18.613Z,100224.28
2023-01-29T13:44:51.478Z,100234.03
2023-01-29T13:47:28.108Z,100246.63
2023-01-29T13:50:36.354Z,100251.38
2023-01-29T13:53:06.181Z,100258.00
2023-01-29T13:55:36.238Z,100254.56
2023-01-29T13:58:16.981Z,100254.25
2023-01-29T14:00:44.198Z,100267.72
2023-01-29T14:03:14.243Z,100279.66
2023-01-29T14:05:46.389Z,100261.97
2023-01-29T14:08:14.311Z,100273.91
2023-01-29T14:10:43.273Z,100270.75
2023-01-29T14:13:19.312Z,100254.03
2023-01-29T14:16:06.313Z,100252.78
2023-01-29T14:18:46.156Z,100219.13
2023-01-29T14:21:32.249Z,100241.88
2023-01-29T14:24:16.869Z,100236.66
2023-01-29T14:26:47.633Z,100256.31
2023-01-29T14:29:29.084Z,100267.06
2023-01-29T14:32:19.703Z,100271.91
2023-01-29T14:35:03.728Z,100246.19
2023-01-29T14:37:36.411Z,100277.78
2023-01-29T14:40:19.921Z,100271.56
2023-01-29T14:43:22.137Z,100276.00
2023-01-29T14:45:51.816Z,100275.50
2023-01-29T14:48:39.736Z,100278.81
2023-01-29T14:51:17.513Z,100268.88
2023-01-29T14:54:04.373Z,100263.53
2023-01-29T14:56:40.150Z,100279.91
2023-01-29T14:59:30.057Z,100281.56
2023-01-29T15:02:02.407Z,100264.09
2023-01-29T15:04:41.351Z,100277.97
2023-01-29T15:07:16.866Z,100282.88
2023-01-29T15:09:55.671Z,100261.22
2023-01-29T15:12:48.733Z,100278.91
2023-01-29T15:15:28.163Z,100295.09
2023-01-29T15:18:05.354Z,100286.84
2023-01-29T15:20:35.530Z,100296.25
2023-01-29T15:23:03.847Z,100282.53
2023-01-29T15:25:48.343Z,100300.22
2023-01-29T15:28:16.984Z,100276.13
2023-01-29T15:30:46.262Z,100278.91
2023-01-29T15:33:14.754Z,100295.88
2023-01-29T15:35:43.835Z,100297.81
2023-01-29T15:38:20.168Z,100299.19
2023-01-29T15:40:58.798Z,100302.50
2023-01-29T15:43:28.255Z,100292.84
2023-01-29T15:46:05.501Z,100288.09
2023-01-29T15:48:42.561Z,100305.47
2023-01-29T15:51:17.772Z,100269.19
2023-01-29T15:53:53.255Z,100292.59
2023-01-29T15:56:28.222Z,100296.97
2023-01-29T15:59:00.711Z,100292.63
2023-01-29T16:01:29.015Z,100297.44
2023-01-29T16:04:02.732Z,100296.16
2023-01-29T16:06:41.274Z,100300.59
2023-01-29T16:09:18.232Z,100271.53
2023-01-29T16:11:47.759Z,100282.94
2023-01-29T16:14:19.148Z,100288.97
2023-01-29T16:16:48.637Z,100308.69
2023-01-29T16:19:28.324Z,100296.19
2023-01-29T16:22:07.596Z,100302.00
2023-01-29T16:24:36.639Z,100304.63
2023-01-29T16:27:13.375Z,100303.56
2023-01-29T16:29:41.823Z,100272.13
2023-01-29T16:32:09.557Z,100289.28
2023-01-29T16:34:40.446Z,100295.41
2023-01-29T16:37:27.322Z,100290.31
2023-01-29T16:39:54.809Z,100293.22
2023-01-29T16:42:26.444Z,100297.66
2023-01-29T16:45:01.795Z,100284.09
2023-01-29T16:47:39.593Z,100304.06
2023-01-29T16:50:53.950Z,100310.47
2023-01-29T16:53:25.168Z,100305.00
2023-01-29T16:55:52.990Z,100296.47
2023-01-29T16:58:25.815Z,100303.38
2023-01-29T17:00:58.458Z,100289.50
2023-01-29T17:03:29.279Z,100301.66
2023-01-29T17:05:59.510Z,100288.91
2023-01-29T17:08:34.013Z,100288.91
2023-01-29T17:11:02.450Z,100282.53
2023-01-29T17:13:43.020Z,100282.78
2023-01-29T17:16:33.366Z,100293.50
2023-01-29T17:19:00.871Z,100290.22
2023-01-29T17:21:29.938Z,100297.13
2023-01-29T17:23:57.046Z,100269.94
2023-01-29T17:26:25.742Z,100274.63
2023-01-29T17:28:54.912Z,100282.09
2023-01-29T17:31:22.978Z,100280.72
2023-01-29T17:33:50.295Z,100244.25
2023-01-29T17:36:23.585Z,100273.28
2023-01-29T17:38:50.832Z,100267.47
2023-01-29T17:41:28.509Z,100285.44
2023-01-29T17:43:56.435Z,100290.81
2023-01-29T17:46:26.645Z,100284.47
2023-01-29T17:48:53.779Z,100273.66
2023-01-29T17:51:22.968Z,100280.81
2023-01-29T17:53:52.213Z,100297.69
2023-01-29T17:56:31.049Z,100299.41
2023-01-29T17:58:58.118Z,100288.91
2023-01-29T18:01:25.326Z,100275.09
2023-01-29T18:03:52.910Z,100280.84
2023-01-29T18:06:28.845Z,100294.19
2023-01-29T18:08:59.242Z,100264.59
2023-01-29T18:11:26.470Z,100273.91
2023-01-29T18:13:53.766Z,100293.88
2023-01-29T18:16:24.091Z,100290.81
2023-01-29T18:18:52.347Z,100291.09
2023-01-29T18:21:19.866Z,100282.03
2023-01-29T18:23:46.983Z,100282.53
2023-01-29T18:26:16.524Z,100295.53
2023-01-29T18:28:43.908Z,100274.22
2023-01-29T18:31:13.151Z,100298.34
2023-01-29T18:33:41.136Z,100299.44
2023-01-29T18:36:08.752Z,100284.53
2023-01-29T18:38:37.190Z,100260.78
2023-01-29T18:41:06.553Z,100312.88
2023-01-29T18:43:33.705Z,100303.19
2023-01-29T18:46:01.907Z,100292.66
2023-01-29T18:48:30.539Z,100282.44
2023-01-29T18:50:57.931Z,100276.91
2023-01-29T18:53:25.292Z,100298.47
2023-01-29T18:56:00.545Z,100299.00
2023-01-29T18:58:35.564Z,100279.13
2023-01-29T19:01:09.780Z,100303.97
2023-01-29T19:03:39.593Z,100277.44
2023-01-29T19:06:10.651Z,100280.78
2023-01-29T19:08:40.840Z,100303.47
2023-01-29T19:11:09.096Z,100305.16
2023-01-29T19:13:38.161Z,100285.78
2023-01-29T19:16:10.197Z,100309.84
2023-01-29T19:18:43.878Z,100313.47
2023-01-29T19:21:16.076Z,100287.44
2023-01-29T19:23:45.049Z,100290.75
2023-01-29T19:26:13.778Z,100289.91
2023-01-29T19:28:42.375Z,100278.28
2023-01-29T19:31:12.407Z,100275.22
2023-01-29T19:33:39.723Z,100271.34
2023-01-29T19:36:07.334Z,100273.00
2023-01-29T19:38:38.064Z,100257.22
2023-01-29T19:41:06.494Z,100286.31
2023-01-29T19:43:33.590Z,100264.44
2023-01-29T19:46:01.629Z,100283.84
2023-01-29T19:48:29.085Z,100287.97
2023-01-29T19:50:58.670Z,100288.53
2023-01-29T19:53:28.257Z,100261.13
2023-01-29T19:56:16.132Z,100266.66
2023-01-29T19:58:43.957Z,100252.81
2023-01-29T20:01:21.145Z,100289.38
2023-01-29T20:03:49.745Z,100273.59
2023-01-29T20:06:19.720Z,100274.69
2023-01-29T20:08:47.066Z,100280.25
2023-01-29T20:11:15.351Z,100264.19
2023-01-29T20:13:43.551Z,100270.81
2023-01-29T20:16:13.209Z,100276.34
2023-01-29T20:18:40.283Z,100278.84
2023-01-29T20:21:09.956Z,100270.81
2023-01-29T20:23:38.741Z,100284.94
2023-01-29T20:26:08.910Z,100271.09
2023-01-29T20:28:36.720Z,100254.47
2023-01-29T20:31:05.085Z,100270.53
2023-01-29T20:33:35.921Z,100278.84
2023-01-29T20:36:06.783Z,100260.28
2023-01-29T20:38:34.802Z,100268.03
2023-01-29T20:41:15.787Z,100258.06
2023-01-29T20:43:43.967Z,100285.75
2023-01-29T20:46:12.065Z,100280.50
2023-01-29T20:48:40.334Z,100281.31
2023-01-29T20:51:13.266Z,100287.13
2023-01-29T20:53:41.575Z,100261.94
2023-01-29T20:56:11.260Z,100267.47
2023-01-29T20:58:38.861Z,100286.03
2023-01-29T21:01:15.789Z,100278.00
2023-01-29T21:03:45.877Z,100291.84
2023-01-29T21:06:13.834Z,100291.28
2023-01-29T21:08:41.016Z,100287.97
2023-01-29T21:11:10.244Z,100292.94
2023-01-29T21:13:40.327Z,100296.25
2023-01-29T21:16:08.058Z,100265.22
2023-01-29T21:18:35.273Z,100265.78
2023-01-29T21:21:02.693Z,100278.25
2023-01-29T21:23:29.721Z,100283.56
2023-01-29T21:26:06.827Z,100278.81
2023-01-29T21:28:34.693Z,100264.19
2023-01-29T21:31:10.218Z,100279.69
2023-01-29T21:33:45.555Z,100262.53
2023-01-29T21:36:13.331Z,100263.63
2023-01-29T21:38:40.448Z,100260.56
2023-01-29T21:41:09.960Z,100284.66
2023-01-29T21:43:40.073Z,100266.38
2023-01-29T21:46:12.167Z,100261.69
2023-01-29T21:48:40.591Z,100267.78
2023-01-29T21:51:09.032Z,100239.25
2023-01-29T21:53:36.856Z,100263.06
2023-01-29T21:56:07.067Z,100254.72
2023-01-29T21:58:34.280Z,100233.69
2023-01-29T22:01:18.420Z,100252.53
2023-01-29T22:03:50.192Z,100249.75
2023-01-29T22:06:17.507Z,100255.56
2023-01-29T22:08:44.732Z,100237.31
2023-01-29T22:11:13.598Z,100260.84
2023-01-29T22:13:41.743Z,100258.59
2023-01-29T22:16:09.203Z,100235.03
2023-01-29T22:18:36.973Z,100255.50
2023-01-29T22:21:04.336Z,100255.75
2023-01-29T22:23:33.582Z,100265.47
2023-01-29T22:26:05.265Z,100241.66
2023-01-29T22:28:32.619Z,100242.47
2023-01-29T22:31:05.109Z,100264.06
2023-01-29T22:33:33.642Z,100256.28
2023-01-29T22:36:01.119Z,100241.34
2023-01-29T22:38:29.405Z,100222.22
2023-01-29T22:40:59.528Z,100255.72
2023-01-29T22:43:29.627Z,100244.63
2023-01-29T22:45:56.930Z,100265.94
2023-01-29T22:48:26.340Z,100245.97
2023-01-29T22:51:12.085Z,100263.44
2023-01-29T22:53:54.444Z,100277.28
2023-01-29T22:56:26.526Z,100263.41
2023-01-29T22:58:55.535Z,100278.91
2023-01-29T23:01:27.933Z,100268.94
2023-01-29T23:03:55.118Z,100262.00
2023-01-29T23:06:24.796Z,100260.06
2023-01-29T23:08:52.160Z,100268.34
2023-01-29T23:11:21.546Z,100242.16
2023-01-29T23:13:52.155Z,100258.19
2023-01-29T23:16:22.612Z,100278.91
2023-01-29T23:18:52.286Z,100286.06
2023-01-29T23:21:20.978Z,100279.66
2023-01-29T23:23:49.797Z,100281.78
2023-01-29T23:26:35.855Z,100267.63
2023-01-29T23:29:04.011Z,100287.72
2023-01-29T23:31:32.347Z,100273.38
2023-01-29T23:34:01.063Z,100262.22
2023-01-29T23:36:28.737Z,100285.41
2023-01-29T23:38:55.885Z,100273.41
2023-01-29T23:41:23.174Z,100263.16
2023-01-29T23:43:52.650Z,100276.47
2023-01-29T23:46:20.572Z,100275.31
2023-01-29T23:48:47.780Z,100284.78
2023-01-29T23:51:14.860Z,100272.59
2023-01-29T23:53:42.103Z,100250.13
2023-01-29T23:56:11.008Z,100267.56
2023-01-29T23:58:38.080Z,100267.56
